Time;durP1;ratioP1;P1;durP2;ratioP2;P2;SDS_P1;SDS_P2;PMS_P1;PMS_P2;Temp;Humidity;BMP_temperature;BMP_pressure;BME280_temperature;BME280_humidity;BME280_pressure;Samples;Min_cycle;Max_cycle;Signal;HPM_P1;HPM_P2
2021/07/24 00:00:17;;;;;;;6.53;4.45;;;;;;;23.70;40.14;99496.16;5031646;28;20084;-75
2021/07/24 00:02:42;;;;;;;6.13;4.47;;;;;;;23.73;40.24;99492.94;5031473;28;20032;-75
2021/07/24 00:05:08;;;;;;;7.70;4.40;;;;;;;23.81;40.02;99495.16;5031562;28;20100;-76
2021/07/24 00:07:33;;;;;;;8.75;5.53;;;;;;;23.22;40.00;99400.31;5030259;28;20022;-75
2021/07/24 00:09:59;;;;;;;7.85;4.90;;;;;;;23.56;39.86;99431.19;5031888;28;20100;-76
2021/07/24 00:12:24;;;;;;;9.02;5.13;;;;;;;23.96;39.96;99492.50;5031446;28;20104;-76
2021/07/24 00:14:50;;;;;;;9.30;4.65;;;;;;;23.93;39.95;99482.25;5031613;28;20044;-74
2021/07/24 00:17:15;;;;;;;8.77;5.20;;;;;;;23.97;39.94;99485.22;5031492;28;20513;-75
2021/07/24 00:19:41;;;;;;;12.75;5.20;;;;;;;24.02;39.97;99487.91;5031402;28;20109;-75
2021/07/24 00:22:06;;;;;;;9.13;5.35;;;;;;;23.76;40.17;99457.38;5031249;28;20100;-75
2021/07/24 00:24:31;;;;;;;8.32;4.60;;;;;;;23.76;40.54;99465.44;5031229;28;20076;-76
2021/07/24 00:26:57;;;;;;;6.78;4.82;;;;;;;23.83;40.44;99479.53;5031071;28;20024;-76
2021/07/24 00:29:22;;;;;;;5.15;4.40;;;;;;;23.68;40.48;99456.00;5031267;28;20546;-75
2021/07/24 00:31:47;;;;;;;8.02;4.97;;;;;;;23.72;40.21;99461.66;5031359;28;20036;-76
2021/07/24 00:34:17;;;;;;;9.63;5.25;;;;;;;23.77;40.37;99478.66;5031211;28;20027;-76
2021/07/24 00:36:43;;;;;;;8.80;5.22;;;;;;;23.75;40.45;99480.81;5031143;28;20547;-74
2021/07/24 00:39:08;;;;;;;7.65;5.70;;;;;;;23.11;40.69;99424.53;5031225;28;20021;-77
2021/07/24 00:42:03;;;;;;;8.02;5.30;;;;;;;23.41;41.05;99490.38;5031206;28;20041;-75
2021/07/24 00:44:29;;;;;;;8.18;5.78;;;;;;;23.37;40.94;99478.50;5030270;28;20072;-76
2021/07/24 00:46:57;;;;;;;9.65;5.80;;;;;;;23.32;41.09;99492.78;5031059;28;20053;-75
2021/07/24 00:49:26;;;;;;;8.27;5.65;;;;;;;23.22;41.24;99489.22;5031143;28;20101;-76
2021/07/24 00:51:53;;;;;;;7.32;5.20;;;;;;;23.14;41.29;99495.91;5031106;28;20031;-73
2021/07/24 00:54:20;;;;;;;9.65;5.45;;;;;;;22.86;41.47;99462.06;5031069;28;20025;-74
2021/07/24 00:56:48;;;;;;;8.10;5.30;;;;;;;22.67;41.58;99437.41;5030961;28;20052;-74
2021/07/24 00:59:13;;;;;;;5.60;4.88;;;;;;;22.97;41.47;99492.56;5031076;28;20022;-75
2021/07/24 01:01:42;;;;;;;7.90;5.55;;;;;;;22.73;41.87;99478.63;5030852;28;20017;-76
2021/07/24 01:04:07;;;;;;;7.32;4.88;;;;;;;22.58;42.09;99484.72;5030972;28;20040;-76
2021/07/24 01:06:33;;;;;;;7.30;5.05;;;;;;;22.50;42.21;99494.09;5031067;28;20025;-76
2021/07/24 01:08:59;;;;;;;6.93;4.68;;;;;;;22.37;42.58;99493.72;5031431;28;20076;-74
2021/07/24 01:11:24;;;;;;;6.28;5.07;;;;;;;21.79;42.58;99404.66;5030963;28;20397;-75
2021/07/24 01:13:50;;;;;;;8.30;5.18;;;;;;;22.38;42.54;99492.63;5030880;28;20044;-76
2021/07/24 01:16:15;;;;;;;6.35;4.85;;;;;;;22.34;42.68;99492.34;5030782;28;20025;-75
2021/07/24 01:18:41;;;;;;;10.70;5.43;;;;;;;22.09;42.68;99462.50;5030843;28;20096;-76
2021/07/24 01:21:09;;;;;;;11.00;5.50;;;;;;;22.25;42.82;99490.34;5030789;28;20025;-74
2021/07/24 01:23:38;;;;;;;7.53;5.10;;;;;;;22.03;42.83;99472.41;5030807;28;20094;-80
2021/07/24 01:26:05;;;;;;;7.97;5.22;;;;;;;22.02;43.37;99494.94;5030725;28;20025;-80
2021/07/24 01:28:35;;;;;;;6.28;5.03;;;;;;;21.83;43.25;99475.66;5030783;28;20029;-80
2021/07/24 01:31:04;;;;;;;7.75;5.45;;;;;;;21.90;43.66;99491.59;5030929;28;20033;-81
2021/07/24 01:33:30;;;;;;;8.90;5.82;;;;;;;21.88;44.14;99525.97;5032463;28;20490;-80
2021/07/24 01:35:55;;;;;;;8.95;6.07;;;;;;;21.43;43.87;99416.91;5034151;28;20026;-80
2021/07/24 01:38:21;;;;;;;7.85;5.72;;;;;;;21.07;43.86;99353.91;5034243;28;20033;-80
2021/07/24 01:40:47;;;;;;;8.02;5.80;;;;;;;21.86;43.80;99479.72;5034324;28;20036;-80
2021/07/24 01:43:13;;;;;;;8.55;5.45;;;;;;;21.78;43.81;99466.75;5034056;28;20116;-80
2021/07/24 01:45:39;;;;;;;8.35;5.28;;;;;;;21.81;43.88;99472.41;5032707;28;20021;-80
2021/07/24 01:48:11;;;;;;;8.13;5.20;;;;;;;21.27;44.06;99393.63;5034093;28;20033;-80
2021/07/24 01:53:22;;;;;;;8.35;5.35;;;;;;;21.58;44.36;99466.53;5034187;28;20091;-80
2021/07/24 01:56:03;;;;;;;7.72;5.60;;;;;;;21.06;44.82;99399.78;5033932;28;20026;-80
2021/07/24 01:58:32;;;;;;;9.23;5.60;;;;;;;20.58;44.40;99329.66;5033935;28;20026;-80
2021/07/24 02:00:59;;;;;;;8.35;5.07;;;;;;;21.51;44.67;99472.88;5033932;28;20026;-80
2021/07/24 02:03:36;;;;;;;8.00;5.50;;;;;;;21.53;44.72;99483.38;5033988;28;20108;-80
2021/07/24 02:06:03;;;;;;;9.55;5.50;;;;;;;21.14;44.54;99410.09;5033728;28;20537;-80
2021/07/24 02:08:29;;;;;;;7.40;5.70;;;;;;;21.51;44.77;99475.56;5033701;28;20101;-80
2021/07/24 02:10:55;;;;;;;7.43;5.07;;;;;;;20.80;44.80;99356.50;5033970;28;20028;-79
2021/07/24 02:13:21;;;;;;;7.43;4.95;;;;;;;21.40;44.83;99459.56;5033823;28;20017;-80
2021/07/24 02:15:47;;;;;;;11.07;5.93;;;;;;;21.45;44.88;99463.13;5033673;28;20449;-79
2021/07/24 02:18:17;;;;;;;8.50;5.00;;;;;;;21.03;45.03;99405.66;5033556;28;20505;-79
2021/07/24 02:20:45;;;;;;;9.35;5.15;;;;;;;21.47;44.92;99477.13;5033578;28;20105;-79
2021/07/24 02:23:10;;;;;;;7.10;4.97;;;;;;;21.50;44.88;99476.63;5033668;28;20032;-75
2021/07/24 02:25:35;;;;;;;7.47;5.40;;;;;;;21.46;44.83;99472.00;5033303;28;20021;-74
2021/07/24 02:28:01;;;;;;;9.10;5.78;;;;;;;21.12;44.86;99410.34;5033137;28;20075;-77
2021/07/24 02:30:26;;;;;;;8.60;5.75;;;;;;;21.42;44.83;99463.63;5033451;28;20079;-75
2021/07/24 02:32:52;;;;;;;10.15;5.30;;;;;;;21.49;44.71;99474.19;5033109;28;20025;-74
2021/07/24 02:35:17;;;;;;;7.55;5.25;;;;;;;21.41;45.03;99472.75;5033252;28;20026;-75
2021/07/24 02:37:42;;;;;;;10.63;6.00;;;;;;;21.30;45.16;99467.50;5033229;28;20017;-76
2021/07/24 02:40:09;;;;;;;7.97;5.63;;;;;;;21.30;45.51;99479.06;5033254;28;20024;-76
2021/07/24 02:42:34;;;;;;;6.82;5.18;;;;;;;21.13;45.50;99454.91;5033064;28;20105;-74
2021/07/24 02:44:59;;;;;;;7.40;5.55;;;;;;;20.03;45.85;99297.44;5030658;28;20105;-75
2021/07/24 02:47:25;;;;;;;7.53;5.95;;;;;;;21.13;45.86;99484.44;5033077;28;20018;-76
2021/07/24 02:49:50;;;;;;;8.30;5.68;;;;;;;20.72;46.23;99425.88;5033239;28;20022;-76
2021/07/24 02:52:16;;;;;;;6.93;5.43;;;;;;;20.95;46.23;99484.75;5033036;28;20021;-74
2021/07/24 02:54:42;;;;;;;8.38;5.63;;;;;;;20.88;46.22;99482.22;5032912;28;20096;-76
2021/07/24 02:57:07;;;;;;;6.03;5.40;;;;;;;20.76;46.43;99443.09;5032413;28;20033;-76
2021/07/24 02:59:33;;;;;;;9.65;5.30;;;;;;;21.03;46.06;99491.56;5032691;28;20017;-75
2021/07/24 03:01:59;;;;;;;9.18;6.15;;;;;;;20.93;46.51;99479.63;5032755;28;20468;-75
2021/07/24 03:04:24;;;;;;;7.93;6.03;;;;;;;21.01;46.47;99491.00;5032869;28;20064;-75
2021/07/24 03:06:50;;;;;;;10.18;5.55;;;;;;;21.04;46.20;99485.13;5032594;28;20017;-75
2021/07/24 03:09:16;;;;;;;9.98;5.82;;;;;;;21.02;46.28;99481.88;5032544;28;20025;-75
2021/07/24 03:11:42;;;;;;;7.57;5.25;;;;;;;21.03;46.27;99484.31;5032532;28;20022;-76
2021/07/24 03:14:07;;;;;;;9.80;5.97;;;;;;;20.93;46.00;99466.19;5032692;28;20410;-74
2021/07/24 03:16:33;;;;;;;7.90;5.55;;;;;;;21.09;46.21;99482.50;5032468;28;20021;-76
2021/07/24 03:18:58;;;;;;;7.00;5.53;;;;;;;20.84;46.14;99446.22;5032347;28;20021;-74
2021/07/24 03:21:24;;;;;;;8.45;5.22;;;;;;;21.10;46.12;99516.34;5032206;28;20018;-77
2021/07/24 03:23:49;;;;;;;11.50;5.55;;;;;;;20.90;46.26;99474.75;5032302;28;20453;-75
2021/07/24 03:26:15;;;;;;;7.95;5.57;;;;;;;20.97;46.48;99484.50;5031989;28;20043;-76
2021/07/24 03:28:40;;;;;;;8.85;5.40;;;;;;;20.89;46.57;99483.03;5032187;28;20030;-76
2021/07/24 03:31:06;;;;;;;7.85;5.70;;;;;;;20.85;46.82;99479.22;5030970;28;20029;-75
2021/07/24 03:33:31;;;;;;;7.28;5.53;;;;;;;20.79;46.96;99480.19;5032093;28;20062;-75
2021/07/24 03:35:57;;;;;;;7.45;5.28;;;;;;;20.72;47.10;99464.25;5032005;28;20029;-76
2021/07/24 03:38:23;;;;;;;9.07;5.43;;;;;;;20.84;47.05;99477.59;5031821;28;20036;-74
2021/07/24 03:40:48;;;;;;;8.05;5.70;;;;;;;20.84;47.08;99477.59;5031802;28;20056;-77
2021/07/24 03:43:14;;;;;;;6.25;5.57;;;;;;;20.41;47.08;99411.22;5031644;28;20474;-76
2021/07/24 03:45:40;;;;;;;6.22;5.18;;;;;;;20.10;47.12;99369.69;5031995;28;20048;-75
2021/07/24 03:48:05;;;;;;;6.78;5.45;;;;;;;19.73;46.97;99326.44;5031864;28;20036;-76
2021/07/24 03:50:31;;;;;;;9.18;5.78;;;;;;;20.63;47.28;99471.09;5031788;28;20418;-75
2021/07/24 03:52:56;;;;;;;6.72;5.93;;;;;;;20.25;47.34;99416.31;5031767;28;20033;-76
2021/07/24 03:55:22;;;;;;;9.70;6.40;;;;;;;20.77;47.35;99495.72;5031357;28;20410;-76
2021/07/24 03:57:50;;;;;;;12.77;6.25;;;;;;;20.79;47.52;99490.91;5031550;28;20024;-75
2021/07/24 04:00:15;;;;;;;12.80;7.47;;;;;;;20.73;47.46;99473.94;5031740;28;20049;-75
2021/07/24 04:02:42;;;;;;;12.73;8.40;;;;;;;20.89;47.39;99499.97;5031915;28;20105;-73
2021/07/24 04:05:08;;;;;;;12.77;8.52;;;;;;;20.95;47.35;99495.47;5030328;28;20473;-75
2021/07/24 04:07:34;;;;;;;11.23;7.97;;;;;;;20.16;47.28;99363.34;5031718;28;20026;-75
2021/07/24 04:10:00;;;;;;;10.55;8.40;;;;;;;20.97;47.19;99482.63;5031585;28;20027;-75
2021/07/24 04:12:26;;;;;;;11.63;7.93;;;;;;;20.98;47.12;99488.81;5031565;28;20433;-75
2021/07/24 04:14:52;;;;;;;11.93;8.02;;;;;;;20.74;47.13;99464.81;5031478;28;20033;-76
2021/07/24 04:17:17;;;;;;;11.57;7.80;;;;;;;21.05;47.06;99490.25;5031444;28;20502;-75
2021/07/24 04:19:43;;;;;;;12.18;7.60;;;;;;;21.03;47.15;99491.56;5031436;28;20556;-76
2021/07/24 04:22:09;;;;;;;13.57;7.50;;;;;;;20.89;47.21;99467.75;5031498;28;20021;-75
2021/07/24 04:24:34;;;;;;;13.90;7.25;;;;;;;21.08;47.52;99505.84;5031377;28;20074;-75
2021/07/24 04:27:00;;;;;;;9.95;7.13;;;;;;;21.04;47.43;99494.00;5031181;28;20022;-77
2021/07/24 04:29:25;;;;;;;14.45;7.10;;;;;;;20.53;47.63;99439.56;5031379;28;20100;-76
2021/07/24 04:31:52;;;;;;;14.13;8.55;;;;;;;20.90;47.81;99488.16;5031494;28;20083;-76
2021/07/24 04:34:18;;;;;;;16.60;8.07;;;;;;;21.02;47.87;99504.16;5031287;28;20032;-77
2021/07/24 04:36:43;;;;;;;13.60;8.60;;;;;;;21.11;47.66;99508.06;5031037;28;20021;-77
2021/07/24 04:39:09;;;;;;;15.13;7.68;;;;;;;21.12;47.71;99498.13;5030999;28;20155;-74
2021/07/24 04:41:34;;;;;;;12.60;8.57;;;;;;;20.94;47.76;99451.72;5031168;28;20127;-74
2021/07/24 04:44:00;;;;;;;11.25;7.55;;;;;;;21.25;47.75;99493.22;5031222;28;20022;-74
2021/07/24 04:46:25;;;;;;;12.68;7.70;;;;;;;21.39;47.79;99512.47;5031063;28;20022;-74
2021/07/24 04:48:50;;;;;;;11.38;7.10;;;;;;;21.40;47.81;99487.25;5031019;28;20126;-74
2021/07/24 04:51:16;;;;;;;11.32;7.03;;;;;;;21.51;47.88;99494.34;5031079;28;20104;-74
2021/07/24 04:53:46;;;;;;;9.90;6.18;;;;;;;21.62;47.98;99506.06;5030908;28;20029;-75
2021/07/24 04:56:11;;;;;;;9.73;5.80;;;;;;;21.66;47.85;99490.25;5030825;28;20518;-76
2021/07/24 04:58:37;;;;;;;9.13;6.55;;;;;;;21.19;47.77;99405.59;5030836;28;20045;-75
2021/07/24 05:01:03;;;;;;;10.73;6.07;;;;;;;21.50;47.66;99444.38;5031079;28;20017;-75
2021/07/24 05:03:30;;;;;;;9.95;5.50;;;;;;;21.71;47.74;99482.25;5031063;28;20025;-75
2021/07/24 05:05:56;;;;;;;9.25;5.90;;;;;;;21.99;47.80;99510.78;5030842;28;20028;-76
2021/07/24 05:08:22;;;;;;;7.50;5.10;;;;;;;21.64;47.85;99462.81;5032542;28;20029;-76
2021/07/24 05:10:48;;;;;;;14.70;6.13;;;;;;;22.09;47.76;99506.34;5034710;28;20029;-76
2021/07/24 05:13:13;;;;;;;9.15;6.00;;;;;;;22.09;48.07;99503.66;5034644;28;20013;-76
2021/07/24 05:15:38;;;;;;;8.68;5.85;;;;;;;22.06;48.15;99496.09;5034796;28;20079;-76
2021/07/24 05:18:08;;;;;;;8.55;5.25;;;;;;;21.86;48.27;99459.03;5034793;28;20017;-76
2021/07/24 05:20:33;;;;;;;5.82;4.75;;;;;;;21.87;48.46;99452.59;5034803;28;20413;-76
2021/07/24 05:22:59;;;;;;;7.75;5.03;;;;;;;22.19;48.59;99509.13;5033311;28;20021;-76
2021/07/24 05:25:24;;;;;;;7.40;5.43;;;;;;;21.81;48.46;99428.59;5034659;28;20105;-74
2021/07/24 05:27:50;;;;;;;12.00;5.30;;;;;;;22.26;48.60;99483.91;5034516;28;20026;-76
2021/07/24 05:30:16;;;;;;;9.57;5.97;;;;;;;22.41;48.21;99492.13;5034374;28;20036;-75
2021/07/24 05:32:41;;;;;;;7.90;5.30;;;;;;;22.56;48.46;99507.59;5034404;28;20025;-76
2021/07/24 05:35:08;;;;;;;6.15;5.00;;;;;;;22.66;48.29;99504.97;5034506;28;20383;-75
2021/07/24 05:37:33;;;;;;;9.52;5.68;;;;;;;22.78;48.16;99501.03;5034371;28;20017;-77
2021/07/24 05:39:59;;;;;;;11.00;5.53;;;;;;;22.87;48.05;99504.06;5034352;28;20383;-76
2021/07/24 05:42:24;;;;;;;8.48;5.18;;;;;;;22.86;48.00;99485.47;5034002;28;20032;-76
2021/07/24 05:44:50;;;;;;;8.52;5.22;;;;;;;22.73;48.01;99463.31;5033892;28;20501;-74
2021/07/24 05:47:15;;;;;;;7.93;4.80;;;;;;;23.01;47.87;99491.78;5033801;28;20026;-75
2021/07/24 05:49:40;;;;;;;10.25;5.30;;;;;;;23.12;48.10;99506.13;5034043;28;20079;-74
2021/07/24 05:52:11;;;;;;;7.68;5.10;;;;;;;22.60;47.98;99411.81;5033925;28;20017;-76
2021/07/24 05:54:37;;;;;;;8.38;4.40;;;;;;;22.99;48.16;99474.25;5034104;28;20025;-76
2021/07/24 05:57:07;;;;;;;7.13;3.70;;;;;;;23.03;47.90;99478.84;5032601;28;20029;-75
2021/07/24 05:59:35;;;;;;;5.80;4.00;;;;;;;22.31;47.71;99341.41;5034256;28;20033;-77
2021/07/24 06:02:02;;;;;;;7.10;4.35;;;;;;;23.12;47.54;99452.25;5034009;28;20558;-76
2021/07/24 06:04:27;;;;;;;6.70;4.03;;;;;;;23.50;47.51;99504.16;5033846;28;20025;-75
2021/07/24 06:06:53;;;;;;;6.30;4.25;;;;;;;23.31;47.16;99455.31;5032406;28;20029;-74
2021/07/24 06:09:18;;;;;;;7.72;4.25;;;;;;;23.66;46.95;99512.06;5033829;28;20029;-77
2021/07/24 06:11:44;;;;;;;6.43;4.50;;;;;;;23.73;46.99;99501.84;5033938;28;20029;-76
2021/07/24 06:14:09;;;;;;;7.38;4.97;;;;;;;23.83;46.76;99501.09;5033706;28;20124;-75
2021/07/24 06:16:38;;;;;;;8.77;5.32;;;;;;;23.85;46.58;99485.47;5033529;28;20531;-75
2021/07/24 06:19:03;;;;;;;6.65;4.63;;;;;;;23.86;46.38;99479.00;5033671;28;20084;-75
2021/07/24 06:21:29;;;;;;;9.15;4.82;;;;;;;24.06;46.30;99502.50;5033458;28;20029;-76
2021/07/24 06:23:54;;;;;;;6.63;4.93;;;;;;;24.06;46.16;99486.31;5033689;28;20031;-74
2021/07/24 06:26:19;;;;;;;5.18;4.68;;;;;;;24.13;45.97;99496.84;5033445;28;20018;-75
2021/07/24 06:28:45;;;;;;;10.25;5.93;;;;;;;24.13;45.80;99497.66;5033457;28;20083;-75
2021/07/24 06:31:10;;;;;;;6.72;5.28;;;;;;;24.25;45.90;99494.69;5033327;28;20509;-76
2021/07/24 06:33:36;;;;;;;10.20;5.55;;;;;;;24.19;45.58;99484.97;5033082;28;20479;-75
2021/07/24 06:36:01;;;;;;;7.63;5.13;;;;;;;24.14;45.44;99471.47;5033209;28;20040;-74
2021/07/24 06:38:27;;;;;;;6.47;5.18;;;;;;;24.41;44.97;99488.25;5033386;28;20026;-76
2021/07/24 06:40:53;;;;;;;7.95;5.70;;;;;;;24.45;44.90;99510.09;5033187;28;20037;-75
2021/07/24 06:43:18;;;;;;;7.88;5.88;;;;;;;24.09;44.76;99431.81;5032975;28;20168;-75
2021/07/24 06:45:44;;;;;;;8.98;4.75;;;;;;;24.59;44.57;99500.41;5033071;28;20116;-76
2021/07/24 06:48:09;;;;;;;7.40;4.97;;;;;;;24.56;44.18;99499.06;5033148;28;20116;-75
2021/07/24 06:50:35;;;;;;;7.03;5.03;;;;;;;24.45;44.18;99470.44;5032821;28;20060;-75
2021/07/24 06:53:00;;;;;;;8.48;5.63;;;;;;;24.70;43.59;99499.31;5032936;28;20033;-75
2021/07/24 06:55:27;;;;;;;7.30;5.50;;;;;;;24.67;43.52;99495.28;5032739;28;20033;-76
2021/07/24 06:57:52;;;;;;;11.07;5.40;;;;;;;24.67;43.28;99483.66;5032307;28;20060;-75
2021/07/24 07:00:18;;;;;;;8.07;5.10;;;;;;;24.73;43.50;99487.16;5032456;28;20033;-76
2021/07/24 07:02:43;;;;;;;8.57;6.22;;;;;;;24.60;43.42;99465.06;5032585;28;20087;-74
2021/07/24 07:05:09;;;;;;;8.55;5.85;;;;;;;24.81;43.03;99495.53;5032464;28;20021;-76
2021/07/24 07:07:35;;;;;;;7.78;5.20;;;;;;;24.66;43.33;99461.25;5032240;28;20033;-74
2021/07/24 07:10:02;;;;;;;8.38;5.90;;;;;;;25.01;42.84;99508.22;5032299;28;20036;-76
2021/07/24 07:12:28;;;;;;;12.65;6.05;;;;;;;24.63;42.78;99420.50;5032445;28;20033;-76
2021/07/24 07:14:53;;;;;;;8.98;6.43;;;;;;;25.20;42.32;99492.22;5032200;28;20025;-75
2021/07/24 07:17:19;;;;;;;14.32;6.60;;;;;;;25.05;41.98;99452.56;5032209;28;20022;-76
2021/07/24 07:19:44;;;;;;;9.52;6.00;;;;;;;25.20;41.80;99473.31;5032089;28;20030;-75
2021/07/24 07:22:10;;;;;;;10.93;5.10;;;;;;;25.45;41.54;99497.56;5032257;28;20022;-75
2021/07/24 07:24:36;;;;;;;11.32;5.60;;;;;;;25.50;41.21;99504.84;5032217;28;20033;-79
2021/07/24 07:27:01;;;;;;;8.38;4.82;;;;;;;25.20;40.84;99446.28;5031973;28;20104;-81
2021/07/24 07:29:27;;;;;;;5.95;4.43;;;;;;;25.36;40.46;99466.78;5032323;28;20490;-80
2021/07/24 07:31:52;;;;;;;6.32;4.80;;;;;;;25.44;40.30;99450.00;5031413;28;20029;-80
2021/07/24 07:34:18;;;;;;;4.22;3.70;;;;;;;25.78;39.84;99485.25;5031671;28;20033;-80
2021/07/24 07:36:43;;;;;;;8.40;4.28;;;;;;;25.94;39.56;99500.31;5032125;28;20109;-80
2021/07/24 07:39:08;;;;;;;6.88;4.25;;;;;;;26.03;38.90;99487.03;5030882;28;20021;-80
2021/07/24 07:41:34;;;;;;;6.80;3.65;;;;;;;26.04;38.25;99482.44;5032060;28;20029;-80
2021/07/24 07:43:59;;;;;;;6.88;3.67;;;;;;;26.03;37.74;99476.22;5032300;28;20025;-81
2021/07/24 07:46:25;;;;;;;5.82;3.38;;;;;;;26.22;36.82;99500.69;5032004;28;20025;-80
2021/07/24 07:48:51;;;;;;;4.93;3.22;;;;;;;26.27;36.02;99515.00;5032032;28;20044;-80
2021/07/24 07:51:16;;;;;;;6.15;3.80;;;;;;;26.43;36.20;99495.97;5031937;28;20032;-80
2021/07/24 07:53:41;;;;;;;8.05;3.75;;;;;;;26.38;35.90;99475.16;5032098;28;20029;-80
2021/07/24 07:56:09;;;;;;;5.28;3.88;;;;;;;26.54;35.61;99482.06;5031893;28;20079;-81
2021/07/24 07:58:36;;;;;;;7.15;3.70;;;;;;;26.38;35.11;99442.69;5032132;28;20017;-80
2021/07/24 08:01:07;;;;;;;7.28;3.00;;;;;;;26.65;34.45;99471.13;5032138;28;20037;-81
2021/07/24 08:03:33;;;;;;;4.10;3.42;;;;;;;26.83;34.09;99476.66;5031885;28;20030;-80
2021/07/24 08:05:58;;;;;;;5.80;3.55;;;;;;;26.90;34.45;99476.31;5031655;28;20035;-80
2021/07/24 08:08:24;;;;;;;6.38;3.83;;;;;;;26.94;33.46;99480.06;5031890;28;20022;-80
2021/07/24 08:10:49;;;;;;;7.68;4.50;;;;;;;26.86;32.79;99456.31;5031691;28;20100;-82
2021/07/24 08:13:16;;;;;;;9.52;6.30;;;;;;;27.22;33.03;99484.66;5031726;28;20409;-80
2021/07/24 08:15:44;;;;;;;6.65;4.80;;;;;;;27.19;32.73;99450.00;5031822;28;20522;-81
2021/07/24 08:18:09;;;;;;;8.32;4.53;;;;;;;27.25;32.78;99453.47;5031707;28;20036;-80
2021/07/24 08:20:35;;;;;;;9.23;5.22;;;;;;;27.32;32.31;99440.38;5032051;28;20033;-81
2021/07/24 08:23:01;;;;;;;12.98;10.13;;;;;;;27.11;32.77;99412.72;5031618;28;20029;-81
2021/07/24 08:25:27;;;;;;;8.98;5.40;;;;;;;27.53;32.19;99449.88;5031430;28;20090;-81
2021/07/24 08:27:55;;;;;;;7.45;4.97;;;;;;;27.79;31.94;99488.34;5031168;28;20486;-81
2021/07/24 08:30:21;;;;;;;9.25;6.15;;;;;;;27.23;32.02;99383.28;5031490;28;20060;-80
2021/07/24 08:32:46;;;;;;;10.40;8.95;;;;;;;27.83;32.21;99472.28;5031452;28;20115;-81
2021/07/24 08:35:11;;;;;;;8.30;5.90;;;;;;;27.83;31.89;99467.66;5031547;28;20037;-79
2021/07/24 08:37:37;;;;;;;14.18;6.40;;;;;;;27.97;31.67;99459.59;5031242;28;20026;-80
2021/07/24 08:40:03;;;;;;;11.85;8.48;;;;;;;28.19;31.53;99480.69;5031610;28;20025;-80
2021/07/24 08:42:29;;;;;;;8.68;6.90;;;;;;;28.31;31.45;99478.38;5030559;28;20034;-81
2021/07/24 08:44:56;;;;;;;8.75;6.47;;;;;;;28.39;31.46;99469.56;5035553;28;20556;-80
2021/07/24 08:47:21;;;;;;;8.55;6.10;;;;;;;28.39;31.36;99458.69;5034095;28;20029;-80
2021/07/24 08:49:47;;;;;;;10.77;7.82;;;;;;;28.46;30.95;99447.44;5035308;28;20052;-79
2021/07/24 08:52:18;;;;;;;9.38;6.38;;;;;;;28.64;31.17;99465.59;5035154;28;20033;-81
2021/07/24 08:54:44;;;;;;;;;;;;;;;28.58;31.12;99463.25;5035656;28;20512;-81
2021/07/24 08:57:13;;;;;;;11.65;10.20;;;;;;;28.77;30.99;99472.16;5035097;28;19909;-81
2021/07/24 08:59:40;;;;;;;8.63;6.70;;;;;;;28.79;30.91;99453.63;5034825;28;20101;-80
2021/07/24 09:02:08;;;;;;;8.23;5.63;;;;;;;28.99;30.46;99456.03;5034942;28;20049;-80
2021/07/24 09:04:35;;;;;;;7.63;6.88;;;;;;;29.15;30.40;99464.69;5035309;28;20109;-81
2021/07/24 09:07:05;;;;;;;12.55;7.00;;;;;;;29.32;30.44;99464.88;5034965;28;20064;-81
2021/07/24 09:09:31;;;;;;;15.45;12.35;;;;;;;29.41;30.32;99460.34;5034663;28;20113;-80
2021/07/24 09:11:57;;;;;;;9.15;5.63;;;;;;;29.59;30.02;99468.69;5035053;28;20026;-81
2021/07/24 09:14:23;;;;;;;6.38;5.30;;;;;;;29.70;29.50;99462.72;5034807;28;20502;-80
2021/07/24 09:16:50;;;;;;;9.48;4.78;;;;;;;29.64;29.08;99438.66;5034951;28;20055;-81
2021/07/24 09:19:17;;;;;;;10.20;4.82;;;;;;;29.82;29.25;99461.41;5035182;28;20562;-79
2021/07/24 09:21:43;;;;;;;8.15;5.50;;;;;;;29.98;28.88;99463.47;5034560;28;20025;-81
2021/07/24 09:24:18;;;;;;;7.38;4.53;;;;;;;30.15;28.62;99460.09;5034706;28;20032;-75
2021/07/24 09:26:44;;;;;;;8.93;7.82;;;;;;;30.12;28.25;99444.38;5034091;28;20216;-73
2021/07/24 09:29:14;;;;;;;8.50;5.72;;;;;;;30.26;27.99;99456.03;5034267;28;20087;-76
2021/07/24 09:31:43;;;;;;;10.25;5.70;;;;;;;30.39;28.34;99467.97;5034127;28;20068;-76
2021/07/24 09:34:10;;;;;;;16.00;12.73;;;;;;;30.48;27.95;99447.06;5034185;28;20057;-75
2021/07/24 09:36:38;;;;;;;8.30;5.30;;;;;;;30.69;27.68;99447.34;5034343;28;20437;-75
2021/07/24 09:39:17;;;;;;;7.90;6.22;;;;;;;30.88;27.27;99453.38;5034362;28;20509;-76
2021/07/24 09:41:44;;;;;;;8.18;4.50;;;;;;;30.47;27.10;99390.13;5034268;28;20026;-76
2021/07/24 09:44:10;;;;;;;19.88;17.63;;;;;;;30.99;27.13;99443.78;5033964;28;20096;-75
2021/07/24 09:46:36;;;;;;;25.83;23.08;;;;;;;30.67;27.36;99379.53;5034097;28;20040;-76
2021/07/24 09:49:14;;;;;;;14.00;6.35;;;;;;;31.21;27.08;99445.69;5034048;28;20061;-74
2021/07/24 09:51:42;;;;;;;8.40;4.93;;;;;;;31.26;26.77;99440.06;5034021;28;20112;-75
2021/07/24 09:54:24;;;;;;;7.10;4.80;;;;;;;31.34;26.20;99416.66;5038259;28;20045;-75
2021/07/24 09:56:50;;;;;;;9.52;6.72;;;;;;;31.37;26.54;99435.13;5053792;28;20062;-75
2021/07/24 09:59:19;;;;;;;8.73;6.22;;;;;;;31.46;26.59;99437.88;5053820;28;20048;-76
2021/07/24 10:01:55;;;;;;;7.70;4.07;;;;;;;31.44;25.76;99413.63;5054081;28;20092;-75
2021/07/24 10:04:25;;;;;;;7.20;4.38;;;;;;;31.75;26.36;99438.09;5052375;28;20424;-76
2021/07/24 10:06:55;;;;;;;7.18;3.75;;;;;;;31.84;25.95;99418.97;5053899;28;20091;-75
2021/07/24 10:09:27;;;;;;;8.75;4.10;;;;;;;31.90;25.67;99428.59;5053924;28;20032;-75
2021/07/24 10:11:57;;;;;;;10.23;7.25;;;;;;;31.83;26.01;99403.72;5053765;28;20025;-75
2021/07/24 10:14:23;;;;;;;10.77;6.35;;;;;;;31.89;25.88;99411.41;5053777;28;20032;-76
2021/07/24 10:16:50;;;;;;;7.28;3.88;;;;;;;31.24;25.76;99289.56;5053392;28;20083;-76
2021/07/24 10:19:17;;;;;;;7.10;4.72;;;;;;;31.89;25.12;99388.78;5053576;28;20025;-73
2021/07/24 10:21:43;;;;;;;13.27;4.75;;;;;;;32.31;24.74;99417.19;5053289;28;20033;-75
2021/07/24 10:24:10;;;;;;;11.73;3.70;;;;;;;32.24;24.54;99400.50;5053313;28;20060;-76
2021/07/24 10:26:37;;;;;;;9.93;5.32;;;;;;;32.09;24.37;99338.16;5053259;28;20029;-75
2021/07/24 10:29:09;;;;;;;5.32;3.67;;;;;;;32.59;24.21;99405.84;5053503;28;20025;-77
2021/07/24 10:32:00;;;;;;;7.15;4.43;;;;;;;32.68;24.20;99423.84;5053278;28;20501;-75
2021/07/24 10:34:29;;;;;;;9.50;4.80;;;;;;;32.65;24.21;99413.56;5053093;28;20465;-75
2021/07/24 10:36:54;;;;;;;9.57;7.72;;;;;;;32.84;23.68;99397.59;5053324;28;20025;-74
2021/07/24 10:39:22;;;;;;;5.68;3.50;;;;;;;33.04;23.29;99417.13;5053170;28;20119;-74
2021/07/24 10:42:09;;;;;;;6.97;3.40;;;;;;;33.16;23.11;99411.75;5052911;28;20057;-75
2021/07/24 10:44:42;;;;;;;14.82;11.82;;;;;;;33.28;23.24;99398.16;5053219;28;20021;-74
2021/07/24 10:47:09;;;;;;;7.68;5.40;;;;;;;33.44;22.93;99414.81;5051669;28;20013;-75
2021/07/24 10:49:34;;;;;;;6.45;3.90;;;;;;;33.42;22.71;99415.16;5052999;28;20493;-77
2021/07/24 10:52:03;;;;;;;8.57;3.95;;;;;;;33.28;22.93;99413.78;5052775;28;20108;-76
2021/07/24 10:54:33;;;;;;;6.90;3.92;;;;;;;33.39;22.87;99410.34;5052937;28;20021;-76
2021/07/24 10:56:59;;;;;;;5.88;4.25;;;;;;;33.04;22.71;99332.34;5052515;28;20029;-76
2021/07/24 10:59:30;;;;;;;4.72;3.70;;;;;;;33.59;22.49;99405.22;5052798;28;20391;-76
2021/07/24 11:01:58;;;;;;;4.53;4.10;;;;;;;33.11;23.00;99409.22;5052813;28;20025;-74
2021/07/24 11:04:35;;;;;;;9.25;4.10;;;;;;;33.06;23.11;99404.72;5052624;28;20032;-74
2021/07/24 11:07:13;;;;;;;6.93;4.00;;;;;;;33.28;22.27;99397.34;5051994;28;20098;-74
2021/07/24 11:09:46;;;;;;;8.82;3.92;;;;;;;33.24;22.24;99377.25;5052551;28;20447;-74
2021/07/24 11:12:16;;;;;;;6.40;3.53;;;;;;;33.36;22.38;99385.56;5051266;28;20020;-75
2021/07/24 11:14:49;;;;;;;10.07;4.35;;;;;;;33.43;22.96;99385.84;5052362;28;20078;-76
2021/07/24 11:17:17;;;;;;;8.02;3.92;;;;;;;32.95;22.86;99337.06;5052170;28;20528;-73
2021/07/24 11:19:52;;;;;;;8.75;4.68;;;;;;;33.62;23.10;99399.91;5052300;28;20056;-74
2021/07/24 11:22:19;;;;;;;7.57;4.10;;;;;;;33.99;22.80;99386.38;5052398;28;20082;-76
2021/07/24 11:24:50;;;;;;;6.32;3.70;;;;;;;34.11;21.93;99392.69;5052351;28;20555;-73
2021/07/24 11:27:25;;;;;;;5.88;3.67;;;;;;;33.92;22.48;99384.19;5052120;28;20029;-76
2021/07/24 11:29:51;;;;;;;4.43;3.55;;;;;;;33.95;21.99;99361.59;5052143;28;20028;-74
2021/07/24 11:32:25;;;;;;;4.40;3.30;;;;;;;34.38;22.02;99365.88;5052239;28;20017;-75